createdAt,value
2023-04-16T07:36:08.472Z,25.42
2023-04-16T07:39:13.632Z,25.55
2023-04-16T07:42:16.311Z,25.55
2023-04-16T07:45:19.322Z,24.40
2023-04-16T07:48:22.599Z,23.25
2023-04-16T07:51:26.509Z,24.13
2023-04-16T07:54:29.281Z,24.80
2023-04-16T07:57:31.768Z,23.92
2023-04-16T08:00:34.476Z,22.00
2023-04-16T08:03:37.132Z,20.90
2023-04-16T08:06:41.281Z,19.83
2023-04-16T08:09:52.227Z,19.70
2023-04-16T08:12:54.741Z,18.53
2023-04-16T08:15:57.170Z,18.00
2023-04-16T08:19:01.034Z,17.25
2023-04-16T08:22:04.925Z,17.77
2023-04-16T08:25:08.567Z,17.67
2023-04-16T08:28:11.031Z,17.30
2023-04-16T08:31:13.511Z,17.10
2023-04-16T08:34:16.014Z,16.02
2023-04-16T08:37:19.798Z,16.15
2023-04-16T08:40:23.061Z,17.02
2023-04-16T08:43:26.652Z,15.27
2023-04-16T08:46:30.844Z,15.57
2023-04-16T08:49:38.986Z,15.77
2023-04-16T08:52:47.383Z,16.23
2023-04-16T08:55:52.272Z,13.52
2023-04-16T08:58:56.270Z,16.55
2023-04-16T09:01:59.996Z,14.30
2023-04-16T09:05:06.513Z,14.45
2023-04-16T09:09:24.471Z,12.40
2023-04-16T09:12:27.393Z,12.70
2023-04-16T09:15:30.229Z,11.35
2023-04-16T09:18:32.837Z,11.75
2023-04-16T09:21:35.744Z,12.93
2023-04-16T09:24:39.574Z,11.10
2023-04-16T09:27:42.126Z,12.35
2023-04-16T09:30:45.569Z,11.68
2023-04-16T09:34:02.729Z,11.68
2023-04-16T09:37:20.253Z,11.60
2023-04-16T09:40:27.390Z,11.48
2023-04-16T09:43:29.911Z,11.00
2023-04-16T09:46:35.161Z,11.30
2023-04-16T09:49:42.992Z,11.10
2023-04-16T09:52:50.768Z,11.32
2023-04-16T09:55:57.969Z,10.38
2023-04-16T09:59:01.113Z,9.75
2023-04-16T10:02:14.375Z,9.82
2023-04-16T10:05:20.912Z,9.15
2023-04-16T10:08:24.943Z,13.40
2023-04-16T10:11:29.286Z,12.40
2023-04-16T10:14:31.900Z,11.48
2023-04-16T10:17:34.795Z,9.73
2023-04-16T11:08:54.136Z,9.80
2023-04-16T11:11:58.200Z,10.50
2023-04-16T11:15:02.237Z,12.52
2023-04-16T11:18:06.951Z,11.32
2023-04-16T11:21:11.244Z,10.13
2023-04-16T11:24:19.140Z,9.57
2023-04-16T11:27:21.625Z,9.50
2023-04-16T11:30:31.051Z,8.55
2023-04-16T11:33:33.575Z,8.63
2023-04-16T11:36:44.164Z,7.75
2023-04-16T11:39:54.267Z,7.15
2023-04-16T11:42:58.058Z,8.63
2023-04-16T11:46:12.922Z,7.55
2023-04-16T11:49:27.572Z,7.43
2023-04-16T11:52:31.495Z,7.80
2023-04-16T11:55:44.195Z,7.50
2023-04-16T11:58:46.709Z,7.22
2023-04-16T12:01:50.993Z,6.20
2023-04-16T12:05:03.284Z,7.45
2023-04-16T12:08:11.799Z,7.03
2023-04-16T12:11:28.377Z,7.10
2023-04-16T12:14:53.263Z,6.55
2023-04-16T12:18:08.003Z,7.15
2023-04-16T12:21:10.934Z,7.30
2023-04-16T12:24:14.830Z,7.20
2023-04-16T12:27:18.614Z,7.45
2023-04-16T12:30:22.961Z,7.30
2023-04-16T12:33:26.111Z,8.00
2023-04-16T12:36:28.699Z,8.02
2023-04-16T12:39:31.155Z,7.80
2023-04-16T12:42:36.610Z,7.43
2023-04-16T12:45:39.610Z,7.38
2023-04-16T12:48:42.577Z,8.02
2023-04-16T12:51:45.144Z,8.07
